Goodman, Mississippi
Current Conditions -  °F | °C
As of 9:53 PM on Thursday 27 Nov 2014 (Local Time) from KGWO Reporting Station
Clear Clear  
Wind Chill: -4°   Ceiling: Unl
Heat Index: -1°   Visibility: 10mi
Dew Point: -3°   Wind: 6mph
Humidity: 88%   Direction: 50°NE
Pressure: 30.49"   Gusts: NA
Location:  32.97°N, 89.91°W
Report Text: KGWO 280353Z AUTO 05005KT 10SM CLR M01/M03 A3049 RMK AO2 SLP325 T10111028 TSNO
Loading
Personal Weather Stations






























Interactive Weather Map New forecast layout! Learn more

10-Day Weather Forecast

Advertisements
Track Severe Weather on mobile